Birmingham, Illinois
Current Conditions -  °F | °C
As of 2:15 PM on Wednesday 26 Nov 2014 (Local Time) from KMQB Reporting Station
Light Snow Light Snow  
Wind Chill: 20°   Ceiling: 600
Heat Index: 31°   Visibility: 0.75mi
Dew Point: 31°   Wind: 17mph
Humidity: 99%   Direction: 90°E
Pressure: 30.02"   Gusts: NA
Location:  40.2814°N, 90.8526°W
Report Text: KMQB 262015Z AUTO 09015KT 3/4SM -SN OVC006 00/M01 A3002 RMK AO2 T10051007
Loading
Personal Weather Stations






























Interactive Weather Map New forecast layout! Learn more

10-Day Weather Forecast

Advertisements
Track Severe Weather on mobile